Time,TemperatureF,DewpointF,PressureIn,WindDirection,WindDirectionDegrees,WindSpeedMPH,WindSpeedGustMPH,Humidity,HourlyPrecipIn,Conditions,Clouds,dailyrainin,SolarRadiationWatts/m^2,SoftwareType,DateUTC
2013-03-06 00:08:00,50.1,49.0,29.82,SSW,212,13.0,25.0,95,0.01,,,0.92,0,weatherlink.com 1.10,2013-03-06 08:08:00,
2013-03-06 00:23:00,49.6,48.0,29.82,SSW,209,12.0,20.0,95,0.01,,,0.92,0,weatherlink.com 1.10,2013-03-06 08:23:00,
2013-03-06 00:38:00,49.5,48.0,29.83,SSW,201,7.0,16.0,95,0.00,,,0.92,0,weatherlink.com 1.10,2013-03-06 08:38:00,
2013-03-06 00:54:00,49.4,48.0,29.83,SSW,199,11.0,19.0,95,0.00,,,0.00,0,weatherlink.com 1.10,2013-03-06 08:54:00,
2013-03-06 01:08:00,49.3,48.0,29.83,SW,230,18.0,23.0,94,0.00,,,0.00,0,weatherlink.com 1.10,2013-03-06 09:08:00,
2013-03-06 01:23:00,48.8,47.0,29.84,SW,215,14.0,23.0,93,0.00,,,0.00,0,weatherlink.com 1.10,2013-03-06 09:23:00,
2013-03-06 01:38:00,48.8,47.0,29.85,SW,219,9.0,17.0,93,0.00,,,0.00,0,weatherlink.com 1.10,2013-03-06 09:38:00,
2013-03-06 01:53:00,48.8,47.0,29.85,SSW,200,14.0,23.0,92,0.00,,,0.00,0,weatherlink.com 1.10,2013-03-06 09:53:00,
2013-03-06 02:08:00,49.0,47.0,29.85,SW,215,15.0,23.0,92,0.00,,,0.00,0,weatherlink.com 1.10,2013-03-06 10:08:00,
2013-03-06 02:24:00,49.1,47.0,29.85,SW,215,17.0,29.0,91,0.00,,,0.00,0,weatherlink.com 1.10,2013-03-06 10:24:00,
2013-03-06 02:39:00,48.5,46.0,29.86,SSW,211,18.0,25.0,91,0.00,,,0.00,0,weatherlink.com 1.10,2013-03-06 10:39:00,
2013-03-06 02:54:00,48.5,46.0,29.86,SW,215,19.0,24.0,91,0.00,,,0.00,0,weatherlink.com 1.10,2013-03-06 10:54:00,
2013-03-06 03:09:00,48.5,46.0,29.87,SW,234,16.0,28.0,91,0.00,,,0.00,0,weatherlink.com 1.10,2013-03-06 11:09:00,
2013-03-06 03:24:00,48.4,46.0,29.87,WSW,254,17.0,22.0,90,0.00,,,0.00,0,weatherlink.com 1.10,2013-03-06 11:24:00,
2013-03-06 03:39:00,48.1,45.0,29.88,WSW,244,14.0,21.0,90,0.00,,,0.00,0,weatherlink.com 1.10,2013-03-06 11:39:00,
2013-03-06 03:54:00,48.2,46.0,29.88,West,265,12.0,19.0,90,0.00,,,0.00,0,weatherlink.com 1.10,2013-03-06 11:54:00,
2013-03-06 04:09:00,46.8,44.0,29.90,WNW,294,4.0,28.0,90,0.04,,,0.04,0,weatherlink.com 1.10,2013-03-06 12:09:00,
2013-03-06 04:24:00,46.7,44.0,29.91,WNW,288,5.0,10.0,91,0.04,,,0.04,0,weatherlink.com 1.10,2013-03-06 12:24:00,
2013-03-06 04:39:00,46.8,44.0,29.92,WSW,253,11.0,15.0,91,0.04,,,0.04,0,weatherlink.com 1.10,2013-03-06 12:39:00,
2013-03-06 04:54:00,47.1,44.0,29.92,WNW,286,6.0,16.0,90,0.04,,,0.04,0,weatherlink.com 1.10,2013-03-06 12:54:00,
2013-03-06 05:09:00,47.2,45.0,29.93,West,261,10.0,14.0,90,0.00,,,0.04,0,weatherlink.com 1.10,2013-03-06 13:09:00,
2013-03-06 05:24:00,47.4,45.0,29.94,WSW,237,9.0,15.0,90,0.00,,,0.04,0,weatherlink.com 1.10,2013-03-06 13:24:00,
2013-03-06 05:39:00,47.4,45.0,29.95,WSW,242,11.0,16.0,90,0.00,,,0.04,0,weatherlink.com 1.10,2013-03-06 13:39:00,
2013-03-06 05:54:00,47.5,45.0,29.95,WSW,248,10.0,19.0,89,0.00,,,0.04,0,weatherlink.com 1.10,2013-03-06 13:54:00,
2013-03-06 06:09:00,47.6,45.0,29.96,WSW,250,8.0,15.0,89,0.00,,,0.04,0,weatherlink.com 1.10,2013-03-06 14:09:00,
2013-03-06 06:24:00,46.9,43.0,29.96,SW,232,10.0,22.0,87,0.00,,,0.04,0,weatherlink.com 1.10,2013-03-06 14:24:00,
2013-03-06 06:39:00,47.1,44.0,29.98,WSW,246,11.0,15.0,89,0.00,,,0.04,0,weatherlink.com 1.10,2013-03-06 14:39:00,
2013-03-06 06:54:00,47.5,45.0,29.98,WSW,241,9.0,15.0,89,0.00,,,0.04,23,weatherlink.com 1.10,2013-03-06 14:54:00,
2013-03-06 07:09:00,47.9,45.0,29.99,SW,234,15.0,17.0,88,0.00,,,0.04,16,weatherlink.com 1.10,2013-03-06 15:09:00,
2013-03-06 07:24:00,47.9,44.0,30.00,WSW,248,12.0,15.0,87,0.00,,,0.04,35,weatherlink.com 1.10,2013-03-06 15:24:00,
2013-03-06 07:39:00,48.7,45.0,30.00,SW,220,11.0,15.0,88,0.00,,,0.04,121,weatherlink.com 1.10,2013-03-06 15:39:00,
2013-03-06 07:54:00,49.1,45.0,30.01,SW,233,12.0,15.0,87,0.00,,,0.04,30,weatherlink.com 1.10,2013-03-06 15:54:00,
2013-03-06 08:09:00,44.3,40.0,30.02,WSW,238,4.0,18.0,86,0.09,,,0.13,19,weatherlink.com 1.10,2013-03-06 16:09:00,
2013-03-06 08:24:00,44.5,42.0,30.03,WSW,245,0.0,6.0,89,0.10,,,0.14,54,weatherlink.com 1.10,2013-03-06 16:24:00,
2013-03-06 08:40:00,45.4,43.0,30.04,WSW,245,2.0,3.0,92,0.10,,,0.14,392,weatherlink.com 1.10,2013-03-06 16:40:00,
2013-03-06 08:55:00,46.9,45.0,30.05,WSW,246,1.0,3.0,92,0.10,,,0.14,63,weatherlink.com 1.10,2013-03-06 16:55:00,
2013-03-06 09:10:00,46.0,44.0,30.05,SW,217,18.0,22.0,91,0.01,,,0.15,40,weatherlink.com 1.10,2013-03-06 17:10:00,
2013-03-06 09:25:00,47.3,45.0,30.06,SW,222,8.0,12.0,91,0.01,,,0.15,171,weatherlink.com 1.10,2013-03-06 17:25:00,
2013-03-06 09:40:00,50.2,48.0,30.07,SSW,203,4.0,8.0,92,0.01,,,0.15,483,weatherlink.com 1.10,2013-03-06 17:40:00,
2013-03-06 09:55:00,50.3,47.0,30.07,SSW,202,4.0,7.0,87,0.01,,,0.15,39,weatherlink.com 1.10,2013-03-06 17:55:00,
2013-03-06 10:10:00,46.6,43.0,30.08,South,190,5.0,21.0,86,0.03,,,0.18,241,weatherlink.com 1.10,2013-03-06 18:10:00,
2013-03-06 10:25:00,48.3,45.0,30.08,South,172,1.0,5.0,87,0.03,,,0.18,160,weatherlink.com 1.10,2013-03-06 18:25:00,
2013-03-06 10:40:00,49.8,47.0,30.08,South,172,0.0,4.0,90,0.03,,,0.18,163,weatherlink.com 1.10,2013-03-06 18:40:00,
2013-03-06 10:55:00,51.7,48.0,30.09,South,182,3.0,7.0,88,0.03,,,0.18,770,weatherlink.com 1.10,2013-03-06 18:55:00,
2013-03-06 11:10:00,54.1,49.0,30.09,South,187,1.0,4.0,83,0.00,,,0.18,763,weatherlink.com 1.10,2013-03-06 19:10:00,
2013-03-06 11:25:00,55.5,49.0,30.10,South,174,3.0,7.0,79,0.00,,,0.18,807,weatherlink.com 1.10,2013-03-06 19:25:00,
2013-03-06 11:40:00,55.9,49.0,30.10,South,175,3.0,6.0,77,0.00,,,0.18,454,weatherlink.com 1.10,2013-03-06 19:40:00,
2013-03-06 11:55:00,55.7,49.0,30.10,South,175,4.0,7.0,77,0.00,,,0.18,313,weatherlink.com 1.10,2013-03-06 19:55:00,
2013-03-06 12:10:00,55.5,50.0,30.11,SSW,194,5.0,7.0,81,0.00,,,0.18,587,weatherlink.com 1.10,2013-03-06 20:10:00,
2013-03-06 12:25:00,55.5,48.0,30.10,WSW,246,0.0,5.0,77,0.00,,,0.18,341,weatherlink.com 1.10,2013-03-06 20:25:00,
2013-03-06 12:40:00,54.7,49.0,30.10,SSW,195,10.0,15.0,80,0.00,,,0.18,726,weatherlink.com 1.10,2013-03-06 20:40:00,
2013-03-06 12:55:00,54.2,47.0,30.10,SSW,192,8.0,13.0,77,0.00,,,0.18,914,weatherlink.com 1.10,2013-03-06 20:55:00,
2013-03-06 13:10:00,55.1,48.0,30.10,South,189,3.0,8.0,77,0.00,,,0.18,777,weatherlink.com 1.10,2013-03-06 21:10:00,
2013-03-06 13:25:00,55.9,47.0,30.10,South,189,4.0,6.0,73,0.00,,,0.18,729,weatherlink.com 1.10,2013-03-06 21:25:00,
2013-03-06 13:40:00,56.4,47.0,30.09,South,189,3.0,6.0,72,0.00,,,0.18,722,weatherlink.com 1.10,2013-03-06 21:40:00,
2013-03-06 13:55:00,56.7,48.0,30.09,South,190,4.0,6.0,72,0.00,,,0.18,707,weatherlink.com 1.10,2013-03-06 21:55:00,
2013-03-06 14:10:00,56.8,48.0,30.09,South,190,4.0,6.0,72,0.00,,,0.18,670,weatherlink.com 1.10,2013-03-06 22:10:00,
2013-03-06 14:25:00,56.8,48.0,30.09,South,190,3.0,5.0,72,0.00,,,0.18,619,weatherlink.com 1.10,2013-03-06 22:25:00,
2013-03-06 14:40:00,57.0,50.0,30.09,South,190,4.0,5.0,76,0.00,,,0.18,670,weatherlink.com 1.10,2013-03-06 22:40:00,
2013-03-06 14:55:00,57.0,50.0,30.09,South,190,4.0,5.0,77,0.00,,,0.18,668,weatherlink.com 1.10,2013-03-06 22:55:00,
2013-03-06 15:10:00,57.7,50.0,30.09,South,190,4.0,5.0,76,0.00,,,0.18,656,weatherlink.com 1.10,2013-03-06 23:10:00,
2013-03-06 15:26:00,57.9,50.0,30.09,South,191,2.0,5.0,76,0.00,,,0.18,531,weatherlink.com 1.10,2013-03-06 23:26:00,
2013-03-06 15:41:00,57.1,50.0,30.09,South,191,3.0,5.0,76,0.00,,,0.18,443,weatherlink.com 1.10,2013-03-06 23:41:00,
2013-03-06 15:56:00,56.7,49.0,30.08,South,191,3.0,4.0,76,0.00,,,0.18,388,weatherlink.com 1.10,2013-03-06 23:56:00,
2013-03-06 16:11:00,56.9,50.0,30.08,South,191,2.0,4.0,77,0.00,,,0.18,285,weatherlink.com 1.10,2013-03-07 00:11:00,
2013-03-06 16:26:00,56.4,49.0,30.08,South,191,2.0,4.0,77,0.00,,,0.18,295,weatherlink.com 1.10,2013-03-07 00:26:00,
2013-03-06 16:41:00,55.3,49.0,30.08,South,191,3.0,3.0,78,0.00,,,0.18,220,weatherlink.com 1.10,2013-03-07 00:41:00,
2013-03-06 16:56:00,54.5,48.0,30.07,South,191,2.0,4.0,79,0.00,,,0.18,141,weatherlink.com 1.10,2013-03-07 00:56:00,
2013-03-06 17:11:00,54.1,47.0,30.08,South,190,2.0,3.0,78,0.00,,,0.18,107,weatherlink.com 1.10,2013-03-07 01:11:00,
2013-03-06 17:26:00,53.7,47.0,30.08,South,190,4.0,4.0,79,0.00,,,0.18,88,weatherlink.com 1.10,2013-03-07 01:26:00,
2013-03-06 17:41:00,53.2,47.0,30.08,South,190,3.0,4.0,80,0.00,,,0.18,77,weatherlink.com 1.10,2013-03-07 01:41:00,
2013-03-06 17:56:00,52.5,47.0,30.07,South,190,4.0,5.0,80,0.00,,,0.18,32,weatherlink.com 1.10,2013-03-07 01:56:00,
2013-03-06 18:11:00,50.5,44.0,30.07,South,190,6.0,9.0,79,0.00,,,0.18,7,weatherlink.com 1.10,2013-03-07 02:11:00,
2013-03-06 18:26:00,49.0,43.0,30.07,South,190,1.0,4.0,79,0.00,,,0.18,0,weatherlink.com 1.10,2013-03-07 02:26:00,
2013-03-06 18:41:00,47.5,42.0,30.07,South,190,2.0,2.0,81,0.00,,,0.18,0,weatherlink.com 1.10,2013-03-07 02:41:00,
2013-03-06 18:56:00,46.4,42.0,30.07,South,190,0.0,1.0,84,0.00,,,0.18,0,weatherlink.com 1.10,2013-03-07 02:56:00,
2013-03-06 19:11:00,45.3,41.0,30.07,South,190,1.0,3.0,86,0.00,,,0.18,0,weatherlink.com 1.10,2013-03-07 03:11:00,
2013-03-06 19:26:00,44.9,41.0,30.07,South,189,0.0,3.0,87,0.00,,,0.18,0,weatherlink.com 1.10,2013-03-07 03:26:00,
2013-03-06 19:41:00,44.2,41.0,30.08,South,189,3.0,3.0,87,0.00,,,0.18,0,weatherlink.com 1.10,2013-03-07 03:41:00,
2013-03-06 19:56:00,43.7,40.0,30.07,South,189,2.0,2.0,88,0.00,,,0.18,0,weatherlink.com 1.10,2013-03-07 03:56:00,
2013-03-06 20:11:00,43.6,41.0,30.08,South,189,2.0,5.0,89,0.00,,,0.18,0,weatherlink.com 1.10,2013-03-07 04:11:00,
2013-03-06 20:26:00,43.8,41.0,30.07,South,186,1.0,3.0,89,0.00,,,0.18,0,weatherlink.com 1.10,2013-03-07 04:26:00,
2013-03-06 20:41:00,43.8,41.0,30.07,SE,137,3.0,4.0,89,0.00,,,0.18,0,weatherlink.com 1.10,2013-03-07 04:41:00,
2013-03-06 20:56:00,43.8,41.0,30.07,ENE,77,3.0,8.0,89,0.00,,,0.18,0,weatherlink.com 1.10,2013-03-07 04:56:00,
2013-03-06 21:11:00,43.8,41.0,30.07,ENE,76,2.0,5.0,89,0.00,,,0.18,0,weatherlink.com 1.10,2013-03-07 05:11:00,
2013-03-06 21:26:00,43.8,41.0,30.06,ENE,74,3.0,7.0,88,0.00,,,0.18,0,weatherlink.com 1.10,2013-03-07 05:26:00,
2013-03-06 21:41:00,43.9,43.0,30.06,NE,53,0.0,4.0,97,0.00,,,0.18,,weatherlink.com 1.10,2013-03-07 05:41:00,
2013-03-06 21:56:00,43.9,43.0,30.06,East,86,0.0,4.0,96,0.00,,,0.18,,weatherlink.com 1.10,2013-03-07 05:56:00,
2013-03-06 22:11:00,43.3,40.0,30.06,ENE,65,2.0,7.0,88,0.01,,,0.19,0,weatherlink.com 1.10,2013-03-07 06:11:00,
2013-03-06 22:26:00,43.3,40.0,30.06,ENE,65,4.0,7.0,88,0.01,,,0.19,0,weatherlink.com 1.10,2013-03-07 06:26:00,
2013-03-06 22:41:00,42.7,40.0,30.06,ENE,65,2.0,4.0,89,0.01,,,0.19,0,weatherlink.com 1.10,2013-03-07 06:41:00,
2013-03-06 22:56:00,42.8,40.0,30.05,ENE,65,3.0,5.0,89,0.01,,,0.19,0,weatherlink.com 1.10,2013-03-07 06:56:00,
2013-03-06 23:11:00,42.5,40.0,30.05,ENE,71,7.0,8.0,89,0.00,,,0.19,0,weatherlink.com 1.10,2013-03-07 07:11:00,
2013-03-06 23:26:00,42.2,39.0,30.05,ENE,66,3.0,7.0,89,0.00,,,0.19,0,weatherlink.com 1.10,2013-03-07 07:26:00,
2013-03-06 23:41:00,42.1,39.0,30.05,ENE,66,1.0,5.0,90,0.00,,,0.19,0,weatherlink.com 1.10,2013-03-07 07:41:00,
2013-03-06 23:56:00,41.8,39.0,30.04,ENE,66,2.0,4.0,90,0.00,,,0.19,0,weatherlink.com 1.10,2013-03-07 07:56:00,